sensor_id;sensor_type;location;lat;lon;timestamp;temperature;humidity
43151;DHT22;28755;51.478;5.702;2023-04-01T00:00:52;10.30;99.90
43151;DHT22;28755;51.478;5.702;2023-04-01T00:03:18;10.30;99.90
43151;DHT22;28755;51.478;5.702;2023-04-01T00:05:45;10.30;99.90
43151;DHT22;28755;51.478;5.702;2023-04-01T00:08:11;10.30;99.90
43151;DHT22;28755;51.478;5.702;2023-04-01T00:10:36;10.30;99.90
43151;DHT22;28755;51.478;5.702;2023-04-01T00:13:02;10.20;99.90
43151;DHT22;28755;51.478;5.702;2023-04-01T00:15:28;10.30;99.90
43151;DHT22;28755;51.478;5.702;2023-04-01T00:17:54;10.20;99.90
43151;DHT22;28755;51.478;5.702;2023-04-01T00:20:20;10.20;99.90
43151;DHT22;28755;51.478;5.702;2023-04-01T00:22:46;10.20;99.90
43151;DHT22;28755;51.478;5.702;2023-04-01T00:25:11;10.20;99.90
43151;DHT22;28755;51.478;5.702;2023-04-01T00:27:37;10.20;99.90
43151;DHT22;28755;51.478;5.702;2023-04-01T00:30:03;10.20;99.90
43151;DHT22;28755;51.478;5.702;2023-04-01T00:32:29;10.20;99.90
43151;DHT22;28755;51.478;5.702;2023-04-01T00:34:55;10.20;99.90
43151;DHT22;28755;51.478;5.702;2023-04-01T00:37:21;10.20;99.90
43151;DHT22;28755;51.478;5.702;2023-04-01T00:39:48;10.20;99.90
43151;DHT22;28755;51.478;5.702;2023-04-01T00:42:13;10.20;99.90
43151;DHT22;28755;51.478;5.702;2023-04-01T00:44:40;10.20;99.90
43151;DHT22;28755;51.478;5.702;2023-04-01T00:47:05;10.20;99.90
43151;DHT22;28755;51.478;5.702;2023-04-01T00:49:44;10.20;99.90
43151;DHT22;28755;51.478;5.702;2023-04-01T00:52:13;10.20;99.90
43151;DHT22;28755;51.478;5.702;2023-04-01T00:54:41;10.20;99.90
43151;DHT22;28755;51.478;5.702;2023-04-01T00:57:27;10.20;99.90
43151;DHT22;28755;51.478;5.702;2023-04-01T00:59:54;10.20;99.90
43151;DHT22;28755;51.478;5.702;2023-04-01T01:02:21;10.20;99.90
43151;DHT22;28755;51.478;5.702;2023-04-01T01:04:47;10.20;99.90
43151;DHT22;28755;51.478;5.702;2023-04-01T01:12:40;10.20;99.90
43151;DHT22;28755;51.478;5.702;2023-04-01T01:26:33;10.20;99.90
43151;DHT22;28755;51.478;5.702;2023-04-01T01:31:44;10.20;99.90
43151;DHT22;28755;51.478;5.702;2023-04-01T01:37:12;10.20;99.90
43151;DHT22;28755;51.478;5.702;2023-04-01T01:39:41;10.20;99.90
43151;DHT22;28755;51.478;5.702;2023-04-01T01:42:11;10.20;99.90
43151;DHT22;28755;51.478;5.702;2023-04-01T01:44:38;10.20;99.90
43151;DHT22;28755;51.478;5.702;2023-04-01T01:47:05;10.10;99.90
43151;DHT22;28755;51.478;5.702;2023-04-01T01:49:32;10.10;99.90
43151;DHT22;28755;51.478;5.702;2023-04-01T01:51:59;10.10;99.90
43151;DHT22;28755;51.478;5.702;2023-04-01T01:54:25;10.10;99.90
43151;DHT22;28755;51.478;5.702;2023-04-01T01:56:55;10.20;99.90
43151;DHT22;28755;51.478;5.702;2023-04-01T01:59:24;10.20;99.90
43151;DHT22;28755;51.478;5.702;2023-04-01T02:01:53;10.10;99.90
43151;DHT22;28755;51.478;5.702;2023-04-01T02:04:21;10.20;99.90
43151;DHT22;28755;51.478;5.702;2023-04-01T02:06:59;10.20;99.90
43151;DHT22;28755;51.478;5.702;2023-04-01T02:09:27;10.20;99.90
43151;DHT22;28755;51.478;5.702;2023-04-01T02:11:56;10.10;99.90
43151;DHT22;28755;51.478;5.702;2023-04-01T02:14:24;10.10;99.90
43151;DHT22;28755;51.478;5.702;2023-04-01T02:16:57;10.00;99.90
43151;DHT22;28755;51.478;5.702;2023-04-01T02:19:29;10.10;99.90
43151;DHT22;28755;51.478;5.702;2023-04-01T02:22:01;10.10;99.90
43151;DHT22;28755;51.478;5.702;2023-04-01T02:24:30;10.10;99.90
43151;DHT22;28755;51.478;5.702;2023-04-01T02:26:56;10.10;99.90
43151;DHT22;28755;51.478;5.702;2023-04-01T02:29:24;10.10;99.90
43151;DHT22;28755;51.478;5.702;2023-04-01T02:31:51;10.10;99.90
43151;DHT22;28755;51.478;5.702;2023-04-01T02:34:18;10.00;99.90
43151;DHT22;28755;51.478;5.702;2023-04-01T02:36:44;10.00;99.90
43151;DHT22;28755;51.478;5.702;2023-04-01T02:39:09;10.10;99.90
43151;DHT22;28755;51.478;5.702;2023-04-01T02:41:42;10.10;99.90
43151;DHT22;28755;51.478;5.702;2023-04-01T02:44:10;10.10;99.90
43151;DHT22;28755;51.478;5.702;2023-04-01T02:46:35;10.10;99.90
43151;DHT22;28755;51.478;5.702;2023-04-01T02:49:01;10.10;99.90
43151;DHT22;28755;51.478;5.702;2023-04-01T02:51:27;10.10;99.90
43151;DHT22;28755;51.478;5.702;2023-04-01T02:53:53;10.00;99.90
43151;DHT22;28755;51.478;5.702;2023-04-01T02:56:18;10.00;99.90
43151;DHT22;28755;51.478;5.702;2023-04-01T02:58:45;10.20;99.90
43151;DHT22;28755;51.478;5.702;2023-04-01T03:01:11;10.20;99.90
43151;DHT22;28755;51.478;5.702;2023-04-01T03:03:38;10.10;99.90
43151;DHT22;28755;51.478;5.702;2023-04-01T03:06:08;10.00;99.90
43151;DHT22;28755;51.478;5.702;2023-04-01T03:08:34;10.00;99.90
43151;DHT22;28755;51.478;5.702;2023-04-01T03:11:00;10.00;99.90
43151;DHT22;28755;51.478;5.702;2023-04-01T03:13:26;10.10;99.90
43151;DHT22;28755;51.478;5.702;2023-04-01T03:15:52;10.10;99.90
43151;DHT22;28755;51.478;5.702;2023-04-01T03:18:17;10.00;99.90
43151;DHT22;28755;51.478;5.702;2023-04-01T03:20:43;10.00;99.90
43151;DHT22;28755;51.478;5.702;2023-04-01T03:23:09;10.00;99.90
43151;DHT22;28755;51.478;5.702;2023-04-01T03:25:34;10.00;99.90
43151;DHT22;28755;51.478;5.702;2023-04-01T03:28:00;10.10;99.90
43151;DHT22;28755;51.478;5.702;2023-04-01T03:30:26;10.00;99.90
43151;DHT22;28755;51.478;5.702;2023-04-01T03:32:52;10.00;99.90
43151;DHT22;28755;51.478;5.702;2023-04-01T03:35:18;10.00;99.90
43151;DHT22;28755;51.478;5.702;2023-04-01T03:37:44;10.00;99.90
43151;DHT22;28755;51.478;5.702;2023-04-01T03:40:10;10.00;99.90
43151;DHT22;28755;51.478;5.702;2023-04-01T03:42:35;10.00;99.90
43151;DHT22;28755;51.478;5.702;2023-04-01T03:45:02;10.00;99.90
43151;DHT22;28755;51.478;5.702;2023-04-01T03:47:28;10.00;99.90
43151;DHT22;28755;51.478;5.702;2023-04-01T03:49:54;10.00;99.90
43151;DHT22;28755;51.478;5.702;2023-04-01T03:52:20;10.00;99.90
43151;DHT22;28755;51.478;5.702;2023-04-01T03:54:45;10.00;99.90
43151;DHT22;28755;51.478;5.702;2023-04-01T03:57:11;10.00;99.90
43151;DHT22;28755;51.478;5.702;2023-04-01T03:59:37;9.90;99.90
43151;DHT22;28755;51.478;5.702;2023-04-01T04:02:02;9.90;99.90
43151;DHT22;28755;51.478;5.702;2023-04-01T04:04:28;9.90;99.90
43151;DHT22;28755;51.478;5.702;2023-04-01T04:06:55;9.90;99.90
43151;DHT22;28755;51.478;5.702;2023-04-01T04:09:20;9.90;99.90
43151;DHT22;28755;51.478;5.702;2023-04-01T04:11:46;9.90;99.90
43151;DHT22;28755;51.478;5.702;2023-04-01T04:14:11;9.90;99.90
43151;DHT22;28755;51.478;5.702;2023-04-01T04:16:37;9.90;99.90
43151;DHT22;28755;51.478;5.702;2023-04-01T04:19:03;9.90;99.90
43151;DHT22;28755;51.478;5.702;2023-04-01T04:21:29;9.90;99.90
43151;DHT22;28755;51.478;5.702;2023-04-01T04:23:54;9.90;99.90
43151;DHT22;28755;51.478;5.702;2023-04-01T04:26:20;9.90;99.90
43151;DHT22;28755;51.478;5.702;2023-04-01T04:28:46;9.90;99.90
43151;DHT22;28755;51.478;5.702;2023-04-01T04:31:12;9.90;99.90
43151;DHT22;28755;51.478;5.702;2023-04-01T04:33:43;9.90;99.90
43151;DHT22;28755;51.478;5.702;2023-04-01T04:36:08;9.90;99.90
43151;DHT22;28755;51.478;5.702;2023-04-01T04:38:34;9.90;99.90
43151;DHT22;28755;51.478;5.702;2023-04-01T04:40:59;9.90;99.90
43151;DHT22;28755;51.478;5.702;2023-04-01T04:43:25;9.90;99.90
43151;DHT22;28755;51.478;5.702;2023-04-01T04:45:51;9.90;99.90
43151;DHT22;28755;51.478;5.702;2023-04-01T04:48:17;9.80;99.90
43151;DHT22;28755;51.478;5.702;2023-04-01T04:50:45;9.80;99.90
43151;DHT22;28755;51.478;5.702;2023-04-01T04:53:12;9.90;99.90
43151;DHT22;28755;51.478;5.702;2023-04-01T04:55:38;9.90;99.90
43151;DHT22;28755;51.478;5.702;2023-04-01T04:58:07;9.90;99.90
43151;DHT22;28755;51.478;5.702;2023-04-01T05:00:33;9.80;99.90
43151;DHT22;28755;51.478;5.702;2023-04-01T05:02:58;9.80;99.90
43151;DHT22;28755;51.478;5.702;2023-04-01T05:05:24;9.80;99.90
43151;DHT22;28755;51.478;5.702;2023-04-01T05:07:53;9.80;99.90
43151;DHT22;28755;51.478;5.702;2023-04-01T05:10:19;9.80;99.90
43151;DHT22;28755;51.478;5.702;2023-04-01T05:12:48;9.80;99.90
43151;DHT22;28755;51.478;5.702;2023-04-01T05:15:14;9.80;99.90
43151;DHT22;28755;51.478;5.702;2023-04-01T05:17:40;9.80;99.90
43151;DHT22;28755;51.478;5.702;2023-04-01T05:20:06;9.70;99.90
43151;DHT22;28755;51.478;5.702;2023-04-01T05:22:32;9.70;99.90
43151;DHT22;28755;51.478;5.702;2023-04-01T05:24:57;9.70;99.90
43151;DHT22;28755;51.478;5.702;2023-04-01T05:27:23;9.80;99.90
43151;DHT22;28755;51.478;5.702;2023-04-01T05:29:49;9.80;99.90
43151;DHT22;28755;51.478;5.702;2023-04-01T05:32:15;9.70;99.90
43151;DHT22;28755;51.478;5.702;2023-04-01T05:34:40;9.70;99.90
43151;DHT22;28755;51.478;5.702;2023-04-01T05:37:06;9.70;99.90
43151;DHT22;28755;51.478;5.702;2023-04-01T05:39:38;9.80;99.90
43151;DHT22;28755;51.478;5.702;2023-04-01T05:42:06;9.80;99.90
43151;DHT22;28755;51.478;5.702;2023-04-01T05:44:31;9.80;99.90
43151;DHT22;28755;51.478;5.702;2023-04-01T05:46:57;9.70;99.90
43151;DHT22;28755;51.478;5.702;2023-04-01T05:49:23;9.70;99.90
43151;DHT22;28755;51.478;5.702;2023-04-01T05:51:48;9.70;99.90
43151;DHT22;28755;51.478;5.702;2023-04-01T05:54:14;9.80;99.90
43151;DHT22;28755;51.478;5.702;2023-04-01T05:56:39;9.80;99.90
43151;DHT22;28755;51.478;5.702;2023-04-01T05:59:05;9.80;99.90
43151;DHT22;28755;51.478;5.702;2023-04-01T06:01:30;9.80;99.90
43151;DHT22;28755;51.478;5.702;2023-04-01T06:03:56;9.80;99.90
43151;DHT22;28755;51.478;5.702;2023-04-01T06:06:27;9.80;99.90
43151;DHT22;28755;51.478;5.702;2023-04-01T06:08:56;9.80;99.90
43151;DHT22;28755;51.478;5.702;2023-04-01T06:14:37;9.70;99.90
43151;DHT22;28755;51.478;5.702;2023-04-01T06:25:18;9.80;99.90
43151;DHT22;28755;51.478;5.702;2023-04-01T06:33:19;9.80;99.90
43151;DHT22;28755;51.478;5.702;2023-04-01T06:36:31;9.80;99.90
43151;DHT22;28755;51.478;5.702;2023-04-01T06:38:46;9.80;99.90
43151;DHT22;28755;51.478;5.702;2023-04-01T06:41:44;9.80;99.90
43151;DHT22;28755;51.478;5.702;2023-04-01T06:44:47;9.90;99.90
43151;DHT22;28755;51.478;5.702;2023-04-01T06:55:13;10.00;99.90
43151;DHT22;28755;51.478;5.702;2023-04-01T06:57:52;9.90;99.90
43151;DHT22;28755;51.478;5.702;2023-04-01T07:00:35;9.90;99.90
43151;DHT22;28755;51.478;5.702;2023-04-01T07:03:06;9.90;99.90
43151;DHT22;28755;51.478;5.702;2023-04-01T07:05:35;10.00;99.90
43151;DHT22;28755;51.478;5.702;2023-04-01T07:08:04;9.90;99.90
43151;DHT22;28755;51.478;5.702;2023-04-01T07:10:46;9.90;99.90
43151;DHT22;28755;51.478;5.702;2023-04-01T07:13:19;10.00;99.90
43151;DHT22;28755;51.478;5.702;2023-04-01T07:15:56;10.00;99.90
43151;DHT22;28755;51.478;5.702;2023-04-01T07:21:20;10.10;99.90
43151;DHT22;28755;51.478;5.702;2023-04-01T07:23:47;10.10;99.90
43151;DHT22;28755;51.478;5.702;2023-04-01T07:26:23;10.20;99.90
43151;DHT22;28755;51.478;5.702;2023-04-01T07:28:51;10.20;99.90
43151;DHT22;28755;51.478;5.702;2023-04-01T07:36:42;10.20;99.90
43151;DHT22;28755;51.478;5.702;2023-04-01T07:39:26;10.40;99.90
43151;DHT22;28755;51.478;5.702;2023-04-01T07:42:09;10.40;99.90
43151;DHT22;28755;51.478;5.702;2023-04-01T07:50:20;10.60;99.90
43151;DHT22;28755;51.478;5.702;2023-04-01T07:58:39;10.40;99.90
43151;DHT22;28755;51.478;5.702;2023-04-01T08:01:35;10.40;99.90
43151;DHT22;28755;51.478;5.702;2023-04-01T08:07:16;10.40;99.90
43151;DHT22;28755;51.478;5.702;2023-04-01T08:15:23;10.80;99.90
43151;DHT22;28755;51.478;5.702;2023-04-01T08:20:56;10.90;99.90
43151;DHT22;28755;51.478;5.702;2023-04-01T08:23:26;11.00;99.90
43151;DHT22;28755;51.478;5.702;2023-04-01T08:26:13;11.10;99.90
43151;DHT22;28755;51.478;5.702;2023-04-01T08:28:45;11.20;99.90
43151;DHT22;28755;51.478;5.702;2023-04-01T08:33:56;11.30;99.90
43151;DHT22;28755;51.478;5.702;2023-04-01T08:36:35;11.30;99.90
43151;DHT22;28755;51.478;5.702;2023-04-01T08:48:45;11.10;99.90
43151;DHT22;28755;51.478;5.702;2023-04-01T08:54:27;11.00;99.90
43151;DHT22;28755;51.478;5.702;2023-04-01T08:57:30;11.10;99.90
43151;DHT22;28755;51.478;5.702;2023-04-01T09:00:29;11.20;99.90
43151;DHT22;28755;51.478;5.702;2023-04-01T09:03:40;11.20;99.90
43151;DHT22;28755;51.478;5.702;2023-04-01T09:06:21;11.10;99.90
43151;DHT22;28755;51.478;5.702;2023-04-01T09:22:58;11.30;99.90
43151;DHT22;28755;51.478;5.702;2023-04-01T09:34:31;11.70;99.90
43151;DHT22;28755;51.478;5.702;2023-04-01T09:37:19;11.60;99.90
43151;DHT22;28755;51.478;5.702;2023-04-01T09:40:14;11.70;99.90
43151;DHT22;28755;51.478;5.702;2023-04-01T09:48:11;11.90;99.90
43151;DHT22;28755;51.478;5.702;2023-04-01T10:10:54;11.70;99.90
43151;DHT22;28755;51.478;5.702;2023-04-01T10:22:27;11.50;99.90
43151;DHT22;28755;51.478;5.702;2023-04-01T10:25:11;11.40;99.90
43151;DHT22;28755;51.478;5.702;2023-04-01T10:36:57;11.50;99.90
43151;DHT22;28755;51.478;5.702;2023-04-01T10:39:56;11.40;99.90
43151;DHT22;28755;51.478;5.702;2023-04-01T10:48:42;11.40;99.90
43151;DHT22;28755;51.478;5.702;2023-04-01T10:57:16;11.40;99.90
43151;DHT22;28755;51.478;5.702;2023-04-01T11:00:18;11.30;99.90
43151;DHT22;28755;51.478;5.702;2023-04-01T11:06:18;11.50;99.90
43151;DHT22;28755;51.478;5.702;2023-04-01T11:17:34;11.50;99.90
43151;DHT22;28755;51.478;5.702;2023-04-01T11:29:06;11.30;99.90
43151;DHT22;28755;51.478;5.702;2023-04-01T11:34:32;11.20;99.90
43151;DHT22;28755;51.478;5.702;2023-04-01T11:43:01;11.40;99.90
43151;DHT22;28755;51.478;5.702;2023-04-01T11:45:59;11.40;99.90
43151;DHT22;28755;51.478;5.702;2023-04-01T11:56:52;11.40;99.90
43151;DHT22;28755;51.478;5.702;2023-04-01T11:59:45;11.40;99.90
43151;DHT22;28755;51.478;5.702;2023-04-01T12:10:47;11.50;99.90
43151;DHT22;28755;51.478;5.702;2023-04-01T12:13:32;11.60;99.90
43151;DHT22;28755;51.478;5.702;2023-04-01T12:16:24;11.60;99.90
43151;DHT22;28755;51.478;5.702;2023-04-01T12:19:03;11.70;99.90
43151;DHT22;28755;51.478;5.702;2023-04-01T12:21:36;11.80;99.90
43151;DHT22;28755;51.478;5.702;2023-04-01T12:26:46;11.80;99.90
43151;DHT22;28755;51.478;5.702;2023-04-01T12:29:41;12.00;99.90
43151;DHT22;28755;51.478;5.702;2023-04-01T12:37:50;12.10;99.90
43151;DHT22;28755;51.478;5.702;2023-04-01T12:43:35;12.00;99.90
43151;DHT22;28755;51.478;5.702;2023-04-01T12:55:28;11.70;99.90
43151;DHT22;28755;51.478;5.702;2023-04-01T12:58:15;11.70;99.90
43151;DHT22;28755;51.478;5.702;2023-04-01T13:01:15;11.60;99.90
43151;DHT22;28755;51.478;5.702;2023-04-01T13:03:59;11.50;99.90
43151;DHT22;28755;51.478;5.702;2023-04-01T13:07:32;11.50;99.90
43151;DHT22;28755;51.478;5.702;2023-04-01T13:09:50;11.40;99.90
43151;DHT22;28755;51.478;5.702;2023-04-01T13:12:26;11.50;99.90
43151;DHT22;28755;51.478;5.702;2023-04-01T13:18:20;11.50;99.90
43151;DHT22;28755;51.478;5.702;2023-04-01T13:26:38;11.60;99.90
43151;DHT22;28755;51.478;5.702;2023-04-01T13:29:20;11.50;99.90
43151;DHT22;28755;51.478;5.702;2023-04-01T13:43:34;11.40;99.90
43151;DHT22;28755;51.478;5.702;2023-04-01T13:46:19;11.50;99.90
43151;DHT22;28755;51.478;5.702;2023-04-01T13:51:42;11.30;99.90
43151;DHT22;28755;51.478;5.702;2023-04-01T13:54:26;11.50;99.90
43151;DHT22;28755;51.478;5.702;2023-04-01T14:02:47;11.40;99.90
43151;DHT22;28755;51.478;5.702;2023-04-01T14:05:47;11.40;99.90
43151;DHT22;28755;51.478;5.702;2023-04-01T14:10:58;11.30;99.90
43151;DHT22;28755;51.478;5.702;2023-04-01T14:13:59;11.20;99.90
43151;DHT22;28755;51.478;5.702;2023-04-01T14:17:13;11.20;99.90
43151;DHT22;28755;51.478;5.702;2023-04-01T14:34:00;11.20;99.90
43151;DHT22;28755;51.478;5.702;2023-04-01T14:36:41;11.20;99.90
43151;DHT22;28755;51.478;5.702;2023-04-01T14:39:29;11.30;99.90
43151;DHT22;28755;51.478;5.702;2023-04-01T14:42:13;11.30;99.90
43151;DHT22;28755;51.478;5.702;2023-04-01T14:55:36;11.40;99.90
43151;DHT22;28755;51.478;5.702;2023-04-01T14:58:17;11.30;99.90
43151;DHT22;28755;51.478;5.702;2023-04-01T15:06:48;11.20;99.90
43151;DHT22;28755;51.478;5.702;2023-04-01T15:12:24;11.10;99.90
43151;DHT22;28755;51.478;5.702;2023-04-01T15:15:11;11.10;99.90
43151;DHT22;28755;51.478;5.702;2023-04-01T15:26:19;11.20;99.90
43151;DHT22;28755;51.478;5.702;2023-04-01T15:31:46;11.10;99.90
43151;DHT22;28755;51.478;5.702;2023-04-01T15:43:15;11.20;99.90
43151;DHT22;28755;51.478;5.702;2023-04-01T15:51:54;11.10;99.90
43151;DHT22;28755;51.478;5.702;2023-04-01T15:57:05;11.10;99.90
43151;DHT22;28755;51.478;5.702;2023-04-01T16:11:18;11.00;99.90
43151;DHT22;28755;51.478;5.702;2023-04-01T16:17:17;11.10;99.90
43151;DHT22;28755;51.478;5.702;2023-04-01T16:20:01;11.20;99.90
43151;DHT22;28755;51.478;5.702;2023-04-01T16:28:00;11.00;99.90
43151;DHT22;28755;51.478;5.702;2023-04-01T16:30:44;11.10;99.90
43151;DHT22;28755;51.478;5.702;2023-04-01T16:36:28;11.00;99.90
43151;DHT22;28755;51.478;5.702;2023-04-01T16:48:13;11.00;99.90
43151;DHT22;28755;51.478;5.702;2023-04-01T16:51:30;11.00;99.90
43151;DHT22;28755;51.478;5.702;2023-04-01T16:56:40;10.90;99.90
43151;DHT22;28755;51.478;5.702;2023-04-01T16:59:43;10.90;99.90
43151;DHT22;28755;51.478;5.702;2023-04-01T17:02:14;10.80;99.90
43151;DHT22;28755;51.478;5.702;2023-04-01T17:04:47;11.00;99.90
43151;DHT22;28755;51.478;5.702;2023-04-01T17:27:48;10.70;99.90
43151;DHT22;28755;51.478;5.702;2023-04-01T17:30:24;10.90;99.90
43151;DHT22;28755;51.478;5.702;2023-04-01T17:33:56;10.90;99.90
43151;DHT22;28755;51.478;5.702;2023-04-01T17:36:17;10.90;99.90
43151;DHT22;28755;51.478;5.702;2023-04-01T17:41:47;10.90;99.90
43151;DHT22;28755;51.478;5.702;2023-04-01T17:47:11;10.90;99.90
43151;DHT22;28755;51.478;5.702;2023-04-01T17:52:44;11.00;99.90
43151;DHT22;28755;51.478;5.702;2023-04-01T17:58:20;11.00;99.90
43151;DHT22;28755;51.478;5.702;2023-04-01T18:01:11;11.00;99.90
43151;DHT22;28755;51.478;5.702;2023-04-01T18:04:07;11.00;99.90
43151;DHT22;28755;51.478;5.702;2023-04-01T18:09:53;11.00;99.90
43151;DHT22;28755;51.478;5.702;2023-04-01T18:12:45;11.00;99.90
43151;DHT22;28755;51.478;5.702;2023-04-01T18:15:35;11.00;99.90
43151;DHT22;28755;51.478;5.702;2023-04-01T18:20:58;11.00;99.90
43151;DHT22;28755;51.478;5.702;2023-04-01T18:23:49;11.00;99.90
43151;DHT22;28755;51.478;5.702;2023-04-01T18:26:34;11.00;99.90
43151;DHT22;28755;51.478;5.702;2023-04-01T18:34:53;11.00;99.90
43151;DHT22;28755;51.478;5.702;2023-04-01T18:37:38;11.00;99.90
43151;DHT22;28755;51.478;5.702;2023-04-01T18:40:25;11.00;99.90
43151;DHT22;28755;51.478;5.702;2023-04-01T18:50:58;10.80;99.90
43151;DHT22;28755;51.478;5.702;2023-04-01T18:53:35;10.80;99.90
43151;DHT22;28755;51.478;5.702;2023-04-01T18:56:06;10.80;99.90
43151;DHT22;28755;51.478;5.702;2023-04-01T18:58:44;10.80;99.90
43151;DHT22;28755;51.478;5.702;2023-04-01T19:01:14;10.80;99.90
43151;DHT22;28755;51.478;5.702;2023-04-01T19:06:51;10.70;99.90
43151;DHT22;28755;51.478;5.702;2023-04-01T19:12:25;10.70;99.90
43151;DHT22;28755;51.478;5.702;2023-04-01T19:18:02;10.60;99.90
43151;DHT22;28755;51.478;5.702;2023-04-01T19:20:47;10.60;99.90
43151;DHT22;28755;51.478;5.702;2023-04-01T19:23:48;10.60;99.90
43151;DHT22;28755;51.478;5.702;2023-04-01T19:26:42;10.50;99.90
43151;DHT22;28755;51.478;5.702;2023-04-01T19:46:02;10.40;99.90
43151;DHT22;28755;51.478;5.702;2023-04-01T19:48:34;10.40;99.90
43151;DHT22;28755;51.478;5.702;2023-04-01T19:51:27;10.40;99.90
43151;DHT22;28755;51.478;5.702;2023-04-01T19:55:04;10.30;99.90
43151;DHT22;28755;51.478;5.702;2023-04-01T20:04:44;10.20;99.90
43151;DHT22;28755;51.478;5.702;2023-04-01T20:07:27;10.10;99.90
43151;DHT22;28755;51.478;5.702;2023-04-01T20:17:47;10.10;99.90
43151;DHT22;28755;51.478;5.702;2023-04-01T20:20:20;10.00;99.90
43151;DHT22;28755;51.478;5.702;2023-04-01T20:25:51;10.10;99.90
43151;DHT22;28755;51.478;5.702;2023-04-01T20:34:04;10.00;99.90
43151;DHT22;28755;51.478;5.702;2023-04-01T20:36:40;9.90;99.90
43151;DHT22;28755;51.478;5.702;2023-04-01T20:39:11;9.90;99.90
43151;DHT22;28755;51.478;5.702;2023-04-01T20:42:16;9.80;99.90
43151;DHT22;28755;51.478;5.702;2023-04-01T20:45:19;9.70;99.90
43151;DHT22;28755;51.478;5.702;2023-04-01T20:48:21;9.70;99.90
43151;DHT22;28755;51.478;5.702;2023-04-01T20:50:59;9.70;99.90
43151;DHT22;28755;51.478;5.702;2023-04-01T20:59:13;9.70;99.90
43151;DHT22;28755;51.478;5.702;2023-04-01T21:04:30;9.60;99.90
43151;DHT22;28755;51.478;5.702;2023-04-01T21:09:46;9.60;99.90
43151;DHT22;28755;51.478;5.702;2023-04-01T21:12:28;9.60;99.90
43151;DHT22;28755;51.478;5.702;2023-04-01T21:15:22;9.50;99.90
43151;DHT22;28755;51.478;5.702;2023-04-01T21:21:16;9.50;99.90
43151;DHT22;28755;51.478;5.702;2023-04-01T21:27:13;9.50;99.90
43151;DHT22;28755;51.478;5.702;2023-04-01T21:32:42;9.40;99.90
43151;DHT22;28755;51.478;5.702;2023-04-01T21:35:33;9.50;99.90
43151;DHT22;28755;51.478;5.702;2023-04-01T21:38:27;9.40;99.90
43151;DHT22;28755;51.478;5.702;2023-04-01T21:46:56;9.30;99.90
43151;DHT22;28755;51.478;5.702;2023-04-01T21:52:15;9.30;99.90
43151;DHT22;28755;51.478;5.702;2023-04-01T22:00:32;9.20;99.90
43151;DHT22;28755;51.478;5.702;2023-04-01T22:08:37;9.20;99.90
43151;DHT22;28755;51.478;5.702;2023-04-01T22:13:50;9.20;99.90
43151;DHT22;28755;51.478;5.702;2023-04-01T22:16:37;9.10;99.90
43151;DHT22;28755;51.478;5.702;2023-04-01T22:21:51;9.10;99.90
43151;DHT22;28755;51.478;5.702;2023-04-01T22:32:39;8.90;99.90
43151;DHT22;28755;51.478;5.702;2023-04-01T22:40:39;8.90;99.90
43151;DHT22;28755;51.478;5.702;2023-04-01T22:43:13;8.90;99.90
43151;DHT22;28755;51.478;5.702;2023-04-01T22:48:22;8.80;99.90
43151;DHT22;28755;51.478;5.702;2023-04-01T22:56:09;8.70;99.90
43151;DHT22;28755;51.478;5.702;2023-04-01T22:58:43;8.60;99.90
43151;DHT22;28755;51.478;5.702;2023-04-01T23:01:24;8.60;99.90
43151;DHT22;28755;51.478;5.702;2023-04-01T23:03:51;8.60;99.90
43151;DHT22;28755;51.478;5.702;2023-04-01T23:06:22;8.50;99.90
43151;DHT22;28755;51.478;5.702;2023-04-01T23:09:15;8.50;99.90
43151;DHT22;28755;51.478;5.702;2023-04-01T23:11:47;8.50;99.90
43151;DHT22;28755;51.478;5.702;2023-04-01T23:20:17;8.40;99.90
43151;DHT22;28755;51.478;5.702;2023-04-01T23:23:09;8.40;99.90
43151;DHT22;28755;51.478;5.702;2023-04-01T23:28:18;8.40;99.90
43151;DHT22;28755;51.478;5.702;2023-04-01T23:33:11;8.40;99.90
43151;DHT22;28755;51.478;5.702;2023-04-01T23:35:57;8.30;99.90
43151;DHT22;28755;51.478;5.702;2023-04-01T23:38:33;8.20;99.90
43151;DHT22;28755;51.478;5.702;2023-04-01T23:40:59;8.30;99.90
43151;DHT22;28755;51.478;5.702;2023-04-01T23:43:31;8.30;99.90
43151;DHT22;28755;51.478;5.702;2023-04-01T23:45:59;8.20;99.90
43151;DHT22;28755;51.478;5.702;2023-04-01T23:48:36;8.20;99.90
43151;DHT22;28755;51.478;5.702;2023-04-01T23:51:02;8.20;99.90
43151;DHT22;28755;51.478;5.702;2023-04-01T23:53:31;8.10;99.90
43151;DHT22;28755;51.478;5.702;2023-04-01T23:55:58;8.10;99.90
43151;DHT22;28755;51.478;5.702;2023-04-01T23:58:25;8.10;99.90
